Time;durP1;ratioP1;P1;durP2;ratioP2;P2;SDS_P1;SDS_P2;PMS_P1;PMS_P2;Temp;Humidity;BMP_temperature;BMP_pressure;BME280_temperature;BME280_humidity;BME280_pressure;Samples;Min_cycle;Max_cycle;Signal;HPM_P1;HPM_P2
2023/07/18 00:00:13;;;;;;;5.53;2.20;;;17.50;99.90;;;;;;4999858;28;20018;-69
2023/07/18 00:02:39;;;;;;;6.90;2.88;;;17.50;99.90;;;;;;5001046;28;20107;-70
2023/07/18 00:05:06;;;;;;;5.97;3.13;;;17.50;99.90;;;;;;5001025;28;20056;-69
2023/07/18 00:07:31;;;;;;;6.55;3.03;;;17.50;99.90;;;;;;5000650;28;20114;-69
2023/07/18 00:09:57;;;;;;;6.22;2.63;;;17.50;99.90;;;;;;5000569;28;20034;-69
2023/07/18 00:12:23;;;;;;;5.03;2.60;;;17.40;99.90;;;;;;4999616;28;20030;-70
2023/07/18 00:14:48;;;;;;;7.18;2.83;;;17.30;99.90;;;;;;4999612;28;20026;-69
2023/07/18 00:17:15;;;;;;;4.70;2.40;;;17.20;99.90;;;;;;4999815;28;20023;-69
2023/07/18 00:19:41;;;;;;;4.95;2.55;;;17.20;99.90;;;;;;5000236;28;20025;-69
2023/07/18 00:22:07;;;;;;;10.38;2.90;;;17.20;99.90;;;;;;4999627;28;20022;-69
2023/07/18 00:24:33;;;;;;;5.80;2.65;;;17.20;99.90;;;;;;5000524;28;20022;-69
2023/07/18 00:26:59;;;;;;;5.07;2.67;;;17.20;99.90;;;;;;5000190;28;20019;-69
2023/07/18 00:29:26;;;;;;;7.00;2.97;;;17.10;99.90;;;;;;4999145;28;20033;-69
2023/07/18 00:31:52;;;;;;;8.30;3.08;;;17.00;99.90;;;;;;4999368;28;20026;-69
2023/07/18 00:34:17;;;;;;;6.80;2.40;;;16.90;99.90;;;;;;4999769;28;20121;-69
2023/07/18 00:36:45;;;;;;;5.47;2.80;;;16.80;99.90;;;;;;5000102;28;20026;-69
2023/07/18 00:39:11;;;;;;;5.18;2.60;;;16.70;99.90;;;;;;4999232;28;20057;-69
2023/07/18 00:41:38;;;;;;;8.80;3.42;;;16.50;99.90;;;;;;4999403;28;20073;-69
2023/07/18 00:44:04;;;;;;;6.70;2.60;;;16.60;99.90;;;;;;4999111;28;20019;-69
2023/07/18 00:46:29;;;;;;;5.43;2.60;;;16.50;99.90;;;;;;5000318;28;20022;-69
2023/07/18 00:48:55;;;;;;;4.93;2.58;;;16.50;99.90;;;;;;4998266;28;20022;-69
2023/07/18 00:51:23;;;;;;;5.25;2.78;;;16.50;99.90;;;;;;4998928;28;20019;-69
2023/07/18 00:53:50;;;;;;;4.22;2.33;;;16.30;99.90;;;;;;4999870;28;20025;-69
2023/07/18 00:56:16;;;;;;;8.23;2.92;;;16.30;99.90;;;;;;4998938;28;20031;-69
2023/07/18 00:58:42;;;;;;;6.10;2.72;;;16.30;99.90;;;;;;4998753;28;20038;-69
2023/07/18 01:01:07;;;;;;;7.88;2.80;;;16.30;99.90;;;;;;4998743;28;20058;-69
2023/07/18 01:03:34;;;;;;;9.27;2.25;;;16.30;99.90;;;;;;4998722;28;20050;-69
2023/07/18 01:05:59;;;;;;;5.68;2.90;;;16.30;99.90;;;;;;4998739;28;20023;-69
2023/07/18 01:08:25;;;;;;;7.43;2.92;;;16.40;99.90;;;;;;4998638;28;20037;-69
2023/07/18 01:10:51;;;;;;;6.35;2.65;;;16.40;99.90;;;;;;4998587;28;20033;-69
2023/07/18 01:13:17;;;;;;;6.20;2.97;;;16.40;99.90;;;;;;4998465;28;20030;-69
2023/07/18 01:15:43;;;;;;;6.85;2.97;;;16.50;99.90;;;;;;4999401;28;20056;-69
2023/07/18 01:18:09;;;;;;;10.80;2.65;;;16.60;99.90;;;;;;4998682;28;20041;-69
2023/07/18 01:20:36;;;;;;;6.75;2.60;;;16.50;99.90;;;;;;4999238;28;20030;-69
2023/07/18 01:23:05;;;;;;;4.70;2.10;;;16.40;99.90;;;;;;4999374;28;20030;-69
2023/07/18 01:25:33;;;;;;;4.28;2.40;;;16.30;99.90;;;;;;4998248;28;20049;-69
2023/07/18 01:27:59;;;;;;;5.28;2.63;;;16.20;99.90;;;;;;4999122;28;20034;-69
2023/07/18 01:30:26;;;;;;;5.03;2.53;;;16.20;99.90;;;;;;4998624;28;20077;-69
2023/07/18 01:32:52;;;;;;;3.45;2.30;;;16.20;99.90;;;;;;4998760;28;20033;-69
2023/07/18 01:35:23;;;;;;;5.00;2.60;;;16.00;99.90;;;;;;4998915;28;20038;-69
2023/07/18 01:37:48;;;;;;;6.25;3.22;;;15.80;99.90;;;;;;4998016;28;20088;-69
2023/07/18 01:40:20;;;;;;;8.48;3.28;;;15.60;99.90;;;;;;4997985;28;20019;-69
2023/07/18 01:42:46;;;;;;;5.57;3.03;;;15.70;99.90;;;;;;4999196;28;20098;-69
2023/07/18 01:45:12;;;;;;;5.57;2.97;;;15.80;99.90;;;;;;4998262;28;20030;-69
2023/07/18 01:47:39;;;;;;;4.95;3.33;;;15.90;99.90;;;;;;4998222;28;20081;-69
2023/07/18 01:50:07;;;;;;;9.15;2.50;;;15.90;99.90;;;;;;4998771;28;20030;-69
2023/07/18 01:52:33;;;;;;;6.55;3.35;;;16.00;99.90;;;;;;4998692;28;20069;-69
2023/07/18 01:55:01;;;;;;;3.90;2.03;;;16.10;99.90;;;;;;4998826;28;20034;-69
2023/07/18 01:57:31;;;;;;;8.85;2.80;;;15.80;99.90;;;;;;4998556;28;20049;-69
2023/07/18 01:59:59;;;;;;;7.63;3.22;;;15.70;99.90;;;;;;4997486;28;20026;-69
2023/07/18 02:02:27;;;;;;;5.80;2.85;;;15.40;99.90;;;;;;4998686;28;20022;-69
2023/07/18 02:04:52;;;;;;;5.85;2.47;;;15.10;99.90;;;;;;4997810;28;20030;-69
2023/07/18 02:07:17;;;;;;;4.65;2.38;;;15.00;99.90;;;;;;4997359;28;20022;-69
2023/07/18 02:09:43;;;;;;;6.15;2.90;;;14.90;99.90;;;;;;4997724;28;20121;-69
2023/07/18 02:12:09;;;;;;;7.68;2.88;;;15.10;99.90;;;;;;4997412;28;20030;-69
2023/07/18 02:14:36;;;;;;;6.15;2.70;;;15.30;99.90;;;;;;4997257;28;20046;-69
2023/07/18 02:17:03;;;;;;;8.00;2.88;;;15.40;99.90;;;;;;4997233;28;20034;-69
2023/07/18 02:19:28;;;;;;;7.25;2.53;;;15.40;99.90;;;;;;4997907;28;20041;-69
2023/07/18 02:21:54;;;;;;;5.60;2.60;;;15.50;99.90;;;;;;4998442;28;20034;-69
2023/07/18 02:24:19;;;;;;;4.57;2.45;;;15.50;99.90;;;;;;4997586;28;20060;-69
2023/07/18 02:26:45;;;;;;;4.13;2.20;;;15.60;99.90;;;;;;4998008;28;20030;-69
2023/07/18 02:29:10;;;;;;;7.68;2.58;;;15.70;99.90;;;;;;4998072;28;20110;-69
2023/07/18 02:31:37;;;;;;;4.28;2.20;;;15.70;99.90;;;;;;4996910;28;20066;-69
2023/07/18 02:34:04;;;;;;;9.13;2.88;;;15.60;99.90;;;;;;4997070;28;20030;-69
2023/07/18 02:36:31;;;;;;;6.18;2.25;;;15.60;99.90;;;;;;4997777;28;20022;-69
2023/07/18 02:38:57;;;;;;;6.00;2.88;;;15.60;99.90;;;;;;4997266;28;20094;-69
2023/07/18 02:41:22;;;;;;;4.60;2.63;;;15.70;99.90;;;;;;4997172;28;20031;-69
2023/07/18 02:43:48;;;;;;;6.03;2.20;;;15.60;99.90;;;;;;4997784;28;20029;-69
2023/07/18 02:46:13;;;;;;;5.20;2.70;;;15.40;99.90;;;;;;4998301;28;20030;-69
2023/07/18 02:48:40;;;;;;;5.30;2.75;;;15.10;99.90;;;;;;4997672;28;20037;-69
2023/07/18 02:51:05;;;;;;;5.75;2.40;;;15.00;99.90;;;;;;4997586;28;20038;-69
2023/07/18 02:53:31;;;;;;;4.68;2.65;;;15.00;99.90;;;;;;4997583;28;20033;-69
2023/07/18 02:55:56;;;;;;;4.22;2.47;;;15.00;99.90;;;;;;4997073;28;20041;-69
2023/07/18 02:58:22;;;;;;;5.53;2.60;;;14.60;99.90;;;;;;4997612;28;20034;-69
2023/07/18 03:00:50;;;;;;;4.60;2.65;;;14.70;99.90;;;;;;4997500;28;20049;-69
2023/07/18 03:03:15;;;;;;;7.43;2.58;;;14.80;99.90;;;;;;4996711;28;20025;-69
2023/07/18 03:05:42;;;;;;;8.38;2.80;;;14.80;99.90;;;;;;4996671;28;20022;-69
2023/07/18 03:08:08;;;;;;;6.40;2.30;;;14.90;99.90;;;;;;4996930;28;20030;-69
2023/07/18 03:10:33;;;;;;;6.45;2.40;;;14.90;99.90;;;;;;4996249;28;20084;-69
2023/07/18 03:12:59;;;;;;;4.38;2.10;;;14.90;99.90;;;;;;4996523;28;20023;-69
2023/07/18 03:15:24;;;;;;;8.48;2.38;;;15.00;99.90;;;;;;4997899;28;20109;-69
2023/07/18 03:17:50;;;;;;;5.43;2.78;;;15.00;99.90;;;;;;4997304;28;20034;-69
2023/07/18 03:20:19;;;;;;;4.30;2.50;;;15.00;99.90;;;;;;4996834;28;20030;-69
2023/07/18 03:22:48;;;;;;;5.25;2.38;;;15.00;99.90;;;;;;4997632;28;20019;-69
2023/07/18 03:25:14;;;;;;;5.15;2.10;;;14.90;99.90;;;;;;4997303;28;20026;-69
2023/07/18 03:27:40;;;;;;;5.57;2.63;;;14.80;99.90;;;;;;4996386;28;20027;-69
2023/07/18 03:30:10;;;;;;;4.20;2.38;;;14.60;99.90;;;;;;4996814;28;20022;-70
2023/07/18 03:32:36;;;;;;;6.75;2.70;;;14.60;99.90;;;;;;4997578;28;20050;-69
2023/07/18 03:35:02;;;;;;;6.22;2.55;;;14.50;99.90;;;;;;4996207;28;20026;-69
2023/07/18 03:37:28;;;;;;;5.35;2.60;;;14.50;99.90;;;;;;4996196;28;20030;-69
2023/07/18 03:39:53;;;;;;;6.28;2.92;;;14.50;99.90;;;;;;4997227;28;20022;-69
2023/07/18 03:42:19;;;;;;;5.28;2.55;;;14.60;99.90;;;;;;4996242;28;20029;-69
2023/07/18 03:44:45;;;;;;;7.65;2.88;;;14.60;99.90;;;;;;4996512;28;20031;-69
2023/07/18 03:47:11;;;;;;;6.00;2.60;;;14.50;99.90;;;;;;4996360;28;20030;-69
2023/07/18 03:49:36;;;;;;;4.95;2.35;;;14.50;99.90;;;;;;4997123;28;20045;-69
2023/07/18 03:52:02;;;;;;;5.28;2.78;;;14.50;99.90;;;;;;4997052;28;20030;-69
2023/07/18 03:54:28;;;;;;;4.97;2.97;;;14.50;99.90;;;;;;4996288;28;20031;-69
2023/07/18 03:56:53;;;;;;;9.50;2.90;;;14.60;99.90;;;;;;4996085;28;20035;-69
2023/07/18 03:59:19;;;;;;;4.03;2.55;;;14.60;99.90;;;;;;4996703;28;20026;-69
2023/07/18 04:01:45;;;;;;;6.15;2.78;;;14.70;99.90;;;;;;4996410;28;20077;-69
2023/07/18 04:04:12;;;;;;;5.43;2.88;;;14.70;99.90;;;;;;4996118;28;20117;-69
2023/07/18 04:06:38;;;;;;;5.38;2.70;;;14.80;99.90;;;;;;4997040;28;20050;-69
2023/07/18 04:09:03;;;;;;;11.10;2.83;;;14.80;99.90;;;;;;4996332;28;20054;-69
2023/07/18 04:11:29;;;;;;;7.40;2.80;;;14.90;99.90;;;;;;4996945;28;20033;-69
2023/07/18 04:13:54;;;;;;;8.75;3.13;;;14.90;99.90;;;;;;4996010;28;20038;-69
2023/07/18 04:16:20;;;;;;;7.80;2.50;;;14.80;99.90;;;;;;4995954;28;20030;-69
2023/07/18 04:18:45;;;;;;;6.65;2.83;;;14.50;99.90;;;;;;4996304;28;20114;-69
2023/07/18 04:21:11;;;;;;;7.10;2.80;;;14.20;99.90;;;;;;4997285;28;20039;-73
2023/07/18 04:23:36;;;;;;;7.88;2.95;;;13.90;99.90;;;;;;4998518;28;20024;-73
2023/07/18 04:26:03;;;;;;;5.88;2.75;;;13.90;99.90;;;;;;4999413;28;20019;-73
2023/07/18 04:28:32;;;;;;;5.43;2.72;;;14.00;99.90;;;;;;4999446;28;20058;-73
2023/07/18 04:30:58;;;;;;;7.43;2.78;;;14.10;99.90;;;;;;5000194;28;20033;-73
2023/07/18 04:33:24;;;;;;;6.10;3.08;;;14.30;99.90;;;;;;4999701;28;20030;-73
2023/07/18 04:35:49;;;;;;;5.97;2.70;;;14.40;99.90;;;;;;4999644;28;20026;-73
2023/07/18 04:38:15;;;;;;;6.65;2.80;;;14.40;99.90;;;;;;4999864;28;20133;-73
2023/07/18 04:40:42;;;;;;;5.30;2.72;;;14.50;99.90;;;;;;5000266;28;20023;-73
2023/07/18 04:43:08;;;;;;;4.93;2.90;;;14.40;99.90;;;;;;5000413;28;20109;-73
2023/07/18 04:45:39;;;;;;;4.82;2.90;;;14.30;99.90;;;;;;4999235;28;20058;-73
2023/07/18 04:48:05;;;;;;;6.03;2.58;;;14.50;99.90;;;;;;4999740;28;20031;-73
2023/07/18 04:50:31;;;;;;;5.97;3.03;;;14.30;99.90;;;;;;4998933;28;20069;-73
2023/07/18 04:52:56;;;;;;;6.38;2.53;;;14.20;99.90;;;;;;4998938;28;20029;-73
2023/07/18 04:55:22;;;;;;;7.13;2.38;;;14.10;99.90;;;;;;4999870;28;20098;-73
2023/07/18 04:57:48;;;;;;;8.68;3.38;;;14.20;99.90;;;;;;4999797;28;20019;-73
2023/07/18 05:00:14;;;;;;;12.43;3.30;;;14.30;99.90;;;;;;4998833;28;20046;-73
2023/07/18 05:02:40;;;;;;;8.82;2.70;;;14.40;99.90;;;;;;4998892;28;20027;-73
2023/07/18 05:05:06;;;;;;;7.07;2.83;;;14.50;99.90;;;;;;4999646;28;20076;-73
2023/07/18 05:07:32;;;;;;;9.13;3.15;;;14.60;99.90;;;;;;4999628;28;20052;-73
2023/07/18 05:09:57;;;;;;;6.97;2.53;;;14.70;99.90;;;;;;4998493;28;20050;-73
2023/07/18 05:12:23;;;;;;;6.35;2.65;;;14.80;99.90;;;;;;4998737;28;20088;-73
2023/07/18 05:14:48;;;;;;;6.95;2.72;;;14.80;99.90;;;;;;4998759;28;20061;-73
2023/07/18 05:17:14;;;;;;;4.57;2.90;;;14.80;99.90;;;;;;4999214;28;20038;-73
2023/07/18 05:19:40;;;;;;;13.38;3.92;;;14.90;99.90;;;;;;4998370;28;20027;-72
2023/07/18 05:22:05;;;;;;;5.93;2.70;;;15.10;99.90;;;;;;4998339;28;20023;-73
2023/07/18 05:24:31;;;;;;;6.13;2.97;;;15.20;99.90;;;;;;4998378;28;20023;-74
2023/07/18 05:26:56;;;;;;;12.02;3.28;;;15.30;99.90;;;;;;4998649;28;20037;-73
2023/07/18 05:29:22;;;;;;;6.68;2.72;;;15.50;99.90;;;;;;4998513;28;20030;-73
2023/07/18 05:31:47;;;;;;;7.18;3.00;;;15.50;99.90;;;;;;4998726;28;20033;-73
2023/07/18 05:34:13;;;;;;;6.00;3.20;;;15.50;99.90;;;;;;4998133;28;20049;-73
2023/07/18 05:36:38;;;;;;;6.18;3.40;;;15.70;99.90;;;;;;4998108;28;20030;-73
2023/07/18 05:39:04;;;;;;;7.13;2.83;;;15.70;99.90;;;;;;4998297;28;20026;-73
2023/07/18 05:41:30;;;;;;;6.78;3.30;;;15.80;99.90;;;;;;4998468;28;20109;-73
2023/07/18 05:43:56;;;;;;;5.60;3.50;;;15.80;99.90;;;;;;4999264;28;20031;-73
2023/07/18 05:46:21;;;;;;;5.53;2.50;;;15.80;99.90;;;;;;4998771;28;20023;-73
2023/07/18 05:48:47;;;;;;;12.02;3.35;;;15.90;99.90;;;;;;4998621;28;20026;-73
2023/07/18 05:51:12;;;;;;;7.47;2.60;;;15.90;99.90;;;;;;4998048;28;20026;-72
2023/07/18 05:53:38;;;;;;;12.23;2.72;;;15.70;99.90;;;;;;4997789;28;20037;-73
2023/07/18 05:56:04;;;;;;;9.70;3.13;;;15.60;99.90;;;;;;4997774;28;20022;-72
2023/07/18 05:58:30;;;;;;;14.15;3.67;;;15.70;99.90;;;;;;4998770;28;20037;-73
2023/07/18 06:00:55;;;;;;;6.18;2.70;;;15.70;99.90;;;;;;4998553;28;20027;-72
2023/07/18 06:03:23;;;;;;;8.15;3.50;;;15.90;99.90;;;;;;4997582;28;20022;-73
2023/07/18 06:05:54;;;;;;;6.95;2.60;;;16.10;99.90;;;;;;4997578;28;20027;-73
2023/07/18 06:08:20;;;;;;;18.30;3.20;;;16.10;99.90;;;;;;4997600;28;20034;-73
2023/07/18 06:10:45;;;;;;;6.93;2.90;;;16.30;99.90;;;;;;4997397;28;20057;-73
2023/07/18 06:13:11;;;;;;;5.07;2.88;;;16.50;99.90;;;;;;4998686;28;20065;-74
2023/07/18 06:15:36;;;;;;;8.52;2.65;;;16.70;99.90;;;;;;4997607;28;20113;-73
2023/07/18 06:18:02;;;;;;;9.52;2.80;;;16.60;99.90;;;;;;4998070;28;20028;-74
2023/07/18 06:20:27;;;;;;;8.13;2.67;;;16.70;99.90;;;;;;4997510;28;20030;-74
2023/07/18 06:22:54;;;;;;;5.93;2.67;;;16.70;99.90;;;;;;4998263;28;20030;-73
2023/07/18 06:25:20;;;;;;;9.05;3.63;;;16.70;99.90;;;;;;4997369;28;20117;-73
2023/07/18 06:27:45;;;;;;;5.35;2.85;;;16.60;99.90;;;;;;4997276;28;20061;-73
2023/07/18 06:30:11;;;;;;;7.07;2.85;;;16.50;99.90;;;;;;4997191;28;20053;-73
2023/07/18 06:32:39;;;;;;;8.43;3.28;;;16.60;99.90;;;;;;4998103;28;20033;-73
2023/07/18 06:35:05;;;;;;;4.05;2.90;;;16.80;99.90;;;;;;4997316;28;20058;-74
2023/07/18 06:37:30;;;;;;;7.70;2.80;;;16.80;99.90;;;;;;4997025;28;20022;-73
2023/07/18 06:39:56;;;;;;;6.35;2.83;;;16.90;99.90;;;;;;4997012;28;20109;-74
2023/07/18 06:42:21;;;;;;;6.45;2.92;;;17.00;99.90;;;;;;4997263;28;20015;-73
2023/07/18 06:44:47;;;;;;;10.52;2.42;;;16.90;99.90;;;;;;4997013;28;20053;-73
2023/07/18 06:47:13;;;;;;;6.40;2.70;;;17.20;99.90;;;;;;4996942;28;20036;-73
2023/07/18 06:49:39;;;;;;;5.97;2.20;;;17.50;99.90;;;;;;4997757;28;20036;-73
2023/07/18 06:52:05;;;;;;;8.90;2.55;;;17.60;99.90;;;;;;4996783;28;20022;-73
2023/07/18 06:54:30;;;;;;;5.75;2.42;;;17.70;99.90;;;;;;4997878;28;20033;-74
2023/07/18 06:56:56;;;;;;;7.20;2.65;;;17.80;99.90;;;;;;4996751;28;20031;-74
2023/07/18 06:59:24;;;;;;;6.63;2.47;;;17.80;99.90;;;;;;4996995;28;20027;-74
2023/07/18 07:01:49;;;;;;;6.28;2.28;;;17.90;99.90;;;;;;4996989;28;20023;-74
2023/07/18 07:04:17;;;;;;;6.82;2.60;;;18.00;99.90;;;;;;4997329;28;20022;-74
2023/07/18 07:06:42;;;;;;;6.28;2.47;;;18.00;99.90;;;;;;4996619;28;20025;-74
2023/07/18 07:09:13;;;;;;;6.68;3.38;;;18.00;99.90;;;;;;4997535;28;20027;-74
2023/07/18 07:11:39;;;;;;;6.43;2.40;;;18.00;99.90;;;;;;4996993;28;20025;-74
2023/07/18 07:14:06;;;;;;;6.13;2.55;;;18.40;99.90;;;;;;4996461;28;20270;-71
2023/07/18 07:16:32;;;;;;;7.32;2.70;;;18.50;99.90;;;;;;4997578;28;20029;-71
2023/07/18 07:18:58;;;;;;;6.47;2.63;;;18.40;99.90;;;;;;4996742;28;20027;-70
2023/07/18 07:21:24;;;;;;;3.90;2.22;;;18.40;99.90;;;;;;4996393;28;20038;-71
2023/07/18 07:23:50;;;;;;;3.78;2.15;;;18.40;99.90;;;;;;4996842;28;20094;-70
2023/07/18 07:26:15;;;;;;;3.88;1.92;;;18.50;99.90;;;;;;4996655;28;20080;-71
2023/07/18 07:28:41;;;;;;;5.00;2.22;;;18.60;99.90;;;;;;4997651;28;20034;-71
2023/07/18 07:31:07;;;;;;;7.05;2.53;;;18.60;99.90;;;;;;4996330;28;20050;-72
2023/07/18 07:33:32;;;;;;;4.55;2.38;;;18.60;99.90;;;;;;4997434;28;20018;-72
2023/07/18 07:35:58;;;;;;;6.15;2.30;;;18.80;99.90;;;;;;4996428;28;20120;-72
2023/07/18 07:38:24;;;;;;;3.33;2.10;;;19.00;99.90;;;;;;4997119;28;20037;-71
2023/07/18 07:40:49;;;;;;;7.13;1.75;;;19.10;99.90;;;;;;4996967;28;20018;-71
2023/07/18 07:43:15;;;;;;;6.25;2.22;;;19.20;99.90;;;;;;4996278;28;20029;-72
2023/07/18 07:45:40;;;;;;;7.28;2.10;;;19.20;99.90;;;;;;4997304;28;20018;-72
2023/07/18 07:48:06;;;;;;;6.43;2.25;;;19.40;99.90;;;;;;4996616;28;20030;-71
2023/07/18 07:50:33;;;;;;;5.07;1.75;;;19.70;99.90;;;;;;4996118;28;20022;-72
2023/07/18 07:52:59;;;;;;;4.55;1.90;;;19.80;99.90;;;;;;4997437;28;20104;-72
2023/07/18 07:55:25;;;;;;;3.13;1.85;;;19.80;99.90;;;;;;4996438;28;20026;-72
2023/07/18 07:57:50;;;;;;;4.25;1.42;;;19.80;99.90;;;;;;4999086;28;20054;-72
2023/07/18 08:00:16;;;;;;;6.07;2.22;;;19.90;99.90;;;;;;4999841;28;20097;-72
2023/07/18 08:02:42;;;;;;;4.05;1.85;;;19.90;99.90;;;;;;4999818;28;20019;-71
2023/07/18 08:05:08;;;;;;;4.95;1.50;;;20.20;99.90;;;;;;5000753;28;20026;-72
2023/07/18 08:07:33;;;;;;;4.25;1.67;;;20.40;99.90;;;;;;5000666;28;20037;-71
2023/07/18 08:09:59;;;;;;;2.92;1.98;;;20.50;99.90;;;;;;5000553;28;20030;-70
2023/07/18 08:12:25;;;;;;;3.70;1.23;;;20.50;99.90;;;;;;4999710;28;20037;-72
2023/07/18 08:14:50;;;;;;;7.10;1.77;;;20.50;99.90;;;;;;5000590;28;20057;-71
2023/07/18 08:17:16;;;;;;;2.88;1.75;;;20.50;99.90;;;;;;5000078;28;20030;-72
2023/07/18 08:19:42;;;;;;;7.88;1.88;;;20.50;99.90;;;;;;4999626;28;20022;-71
2023/07/18 08:22:09;;;;;;;3.05;1.63;;;20.60;99.90;;;;;;4999611;28;20029;-71
2023/07/18 08:24:34;;;;;;;4.03;1.67;;;20.70;99.90;;;;;;5000292;28;20026;-73
2023/07/18 08:27:00;;;;;;;3.75;1.40;;;20.70;99.90;;;;;;4999478;28;20065;-71
2023/07/18 08:29:32;;;;;;;7.28;1.77;;;20.70;99.90;;;;;;4999557;28;20033;-74
2023/07/18 08:31:58;;;;;;;3.47;1.60;;;20.90;99.90;;;;;;5000308;28;20105;-72
2023/07/18 08:34:24;;;;;;;5.57;1.75;;;21.30;99.90;;;;;;4999299;28;20030;-72
2023/07/18 08:36:50;;;;;;;5.53;1.92;;;21.40;99.90;;;;;;5000060;28;20037;-71
2023/07/18 08:39:16;;;;;;;8.20;2.08;;;21.40;99.90;;;;;;4999390;28;20089;-72
2023/07/18 08:41:46;;;;;;;5.95;1.70;;;21.60;99.90;;;;;;4999329;28;20058;-71
2023/07/18 08:44:16;;;;;;;4.75;1.50;;;21.50;99.90;;;;;;4999075;28;20022;-71
2023/07/18 08:46:47;;;;;;;6.18;1.85;;;21.80;99.90;;;;;;4999116;28;20029;-70
2023/07/18 08:49:16;;;;;;;3.92;1.80;;;21.60;99.90;;;;;;5000227;28;20173;-71
2023/07/18 08:51:42;;;;;;;5.78;2.05;;;21.70;99.90;;;;;;4999016;28;20033;-71
2023/07/18 08:54:08;;;;;;;4.40;1.98;;;21.60;99.90;;;;;;4999202;28;20022;-70
2023/07/18 08:56:34;;;;;;;8.57;1.80;;;21.60;99.90;;;;;;4999103;28;20117;-71
2023/07/18 08:59:03;;;;;;;6.55;1.77;;;21.70;99.90;;;;;;4998815;28;20086;-72
2023/07/18 09:01:29;;;;;;;5.90;2.00;;;21.70;99.90;;;;;;4998683;28;20057;-72
2023/07/18 09:03:55;;;;;;;3.60;1.95;;;21.70;99.90;;;;;;4999548;28;20081;-71
2023/07/18 09:06:21;;;;;;;3.88;2.45;;;22.00;99.90;;;;;;4999702;28;20023;-72
2023/07/18 09:08:47;;;;;;;5.03;2.10;;;22.10;99.90;;;;;;4999292;28;20027;-72
2023/07/18 09:11:18;;;;;;;3.35;1.58;;;21.90;99.90;;;;;;4998629;28;20044;-72
2023/07/18 09:13:43;;;;;;;4.47;1.98;;;21.90;99.90;;;;;;4999864;28;20026;-72
2023/07/18 09:16:22;;;;;;;3.03;1.98;;;22.00;99.90;;;;;;4999464;28;20053;-72
2023/07/18 09:18:52;;;;;;;6.43;1.92;;;22.30;99.90;;;;;;4999358;28;20034;-71
2023/07/18 09:21:19;;;;;;;8.10;1.80;;;22.80;99.90;;;;;;4999448;28;20026;-72
2023/07/18 09:23:46;;;;;;;7.55;1.77;;;23.00;99.90;;;;;;4999240;28;20026;-72
2023/07/18 09:26:20;;;;;;;8.45;2.00;;;23.10;99.90;;;;;;4998922;28;20022;-71
2023/07/18 09:28:47;;;;;;;3.80;1.98;;;23.10;99.90;;;;;;4998296;28;20133;-72
2023/07/18 09:31:26;;;;;;;4.68;2.10;;;23.20;99.90;;;;;;4998193;28;20033;-71
2023/07/18 09:33:54;;;;;;;5.43;2.10;;;22.90;99.90;;;;;;4998332;28;20033;-71
2023/07/18 09:36:21;;;;;;;7.68;2.17;;;22.80;99.90;;;;;;4998322;28;20053;-71
2023/07/18 09:38:48;;;;;;;3.40;1.75;;;22.70;99.90;;;;;;4998123;28;20057;-71
2023/07/18 09:41:16;;;;;;;3.55;1.70;;;22.80;99.90;;;;;;4998566;28;20029;-72
2023/07/18 09:43:43;;;;;;;4.20;2.03;;;22.90;99.90;;;;;;4999237;28;20032;-71
2023/07/18 09:46:12;;;;;;;5.35;1.85;;;23.00;99.90;;;;;;4999478;28;20023;-71
2023/07/18 09:48:41;;;;;;;3.63;1.80;;;23.20;99.90;;;;;;4998796;28;20023;-71
2023/07/18 09:51:15;;;;;;;3.33;1.70;;;23.40;99.90;;;;;;4998627;28;20129;-70
2023/07/18 09:53:46;;;;;;;3.47;1.88;;;23.50;99.90;;;;;;4997809;28;20081;-71
2023/07/18 09:56:14;;;;;;;4.00;1.90;;;23.70;99.90;;;;;;4997855;28;20030;-70
2023/07/18 09:58:43;;;;;;;5.80;2.65;;;23.90;99.90;;;;;;4998662;28;20022;-70
2023/07/18 10:01:11;;;;;;;5.45;1.90;;;23.90;99.90;;;;;;4997547;28;20114;-71
2023/07/18 10:03:38;;;;;;;4.05;1.67;;;24.10;99.90;;;;;;4998831;28;20046;-71
2023/07/18 10:06:06;;;;;;;4.55;1.60;;;24.00;99.90;;;;;;4997885;28;20053;-71
2023/07/18 10:08:32;;;;;;;2.85;1.55;;;24.10;99.90;;;;;;4998231;28;20054;-71
2023/07/18 10:11:07;;;;;;;3.22;1.75;;;24.40;99.90;;;;;;4997568;28;20049;-71
2023/07/18 10:13:59;;;;;;;6.10;1.80;;;24.30;99.90;;;;;;4997525;28;20113;-71
2023/07/18 10:16:27;;;;;;;3.75;2.00;;;24.60;99.90;;;;;;4987800;28;20042;-71
2023/07/18 10:18:53;;;;;;;2.72;1.85;;;24.80;99.90;;;;;;4998276;28;20116;-71
2023/07/18 10:21:37;;;;;;;6.30;2.20;;;25.00;99.90;;;;;;4996685;28;20030;-69
2023/07/18 10:24:24;;;;;;;5.97;2.15;;;25.20;99.40;;;;;;4998306;28;20023;-68
2023/07/18 10:27:06;;;;;;;5.47;2.13;;;25.30;98.70;;;;;;4998130;28;20026;-68
2023/07/18 10:29:31;;;;;;;3.03;1.88;;;25.40;99.00;;;;;;4997292;28;20050;-69
2023/07/18 10:31:59;;;;;;;3.40;1.90;;;25.30;99.90;;;;;;4997151;28;20025;-69
2023/07/18 10:34:24;;;;;;;3.83;1.85;;;25.20;99.30;;;;;;4998065;28;20029;-69
2023/07/18 10:36:59;;;;;;;3.17;1.83;;;25.20;99.90;;;;;;4997933;28;20101;-68
2023/07/18 10:39:51;;;;;;;5.05;2.00;;;25.00;99.50;;;;;;4997005;28;20117;-68
2023/07/18 10:42:19;;;;;;;;;;;25.10;98.20;;;;;;4998327;28;20014;-68
2023/07/18 10:44:45;;;;;;;4.10;1.73;;;25.20;98.20;;;;;;4997193;28;19910;-68
2023/07/18 10:47:18;;;;;;;3.00;1.60;;;25.40;96.90;;;;;;4997661;28;20073;-68
2023/07/18 10:49:47;;;;;;;3.42;2.10;;;25.30;96.30;;;;;;4996953;28;20038;-68
2023/07/18 10:52:13;;;;;;;3.50;1.67;;;25.20;96.10;;;;;;4997706;28;20054;-68
2023/07/18 10:54:55;;;;;;;3.75;2.05;;;25.10;96.60;;;;;;4997628;28;20176;-68
2023/07/18 10:57:27;;;;;;;6.97;1.77;;;24.90;97.30;;;;;;4996788;28;20026;-68
2023/07/18 10:59:54;;;;;;;2.55;1.83;;;24.80;97.60;;;;;;4996635;28;20145;-68
2023/07/18 11:02:20;;;;;;;4.25;1.98;;;24.90;96.20;;;;;;4997680;28;20022;-68
2023/07/18 11:04:47;;;;;;;7.20;1.92;;;24.90;95.70;;;;;;4997669;28;20034;-68
2023/07/18 11:07:13;;;;;;;5.82;1.80;;;24.80;96.40;;;;;;4997541;28;20034;-68
2023/07/18 11:09:40;;;;;;;6.68;2.25;;;24.90;95.80;;;;;;4996691;28;20030;-68
2023/07/18 11:12:06;;;;;;;4.93;1.98;;;24.90;95.90;;;;;;4996670;28;20031;-68
2023/07/18 11:14:41;;;;;;;4.85;2.03;;;24.90;95.50;;;;;;4997524;28;20053;-68
2023/07/18 11:17:14;;;;;;;4.55;1.80;;;24.80;94.60;;;;;;4997867;28;20034;-68
2023/07/18 11:19:40;;;;;;;5.25;2.20;;;24.90;94.20;;;;;;4997335;28;20045;-68
2023/07/18 11:22:10;;;;;;;4.82;1.80;;;24.90;93.70;;;;;;4997505;28;20022;-68
2023/07/18 11:24:36;;;;;;;5.13;1.70;;;24.80;93.40;;;;;;4996798;28;20019;-68
2023/07/18 11:27:19;;;;;;;2.88;1.77;;;24.50;94.60;;;;;;4997310;28;20036;-68
2023/07/18 11:30:01;;;;;;;2.72;1.92;;;24.40;96.20;;;;;;4996384;28;20113;-68
2023/07/18 11:32:39;;;;;;;4.78;1.92;;;24.30;95.70;;;;;;4999118;28;20027;-68
2023/07/18 11:35:10;;;;;;;6.28;1.92;;;24.30;95.50;;;;;;5001434;28;20033;-68
2023/07/18 11:37:38;;;;;;;4.78;1.63;;;24.50;94.00;;;;;;5001365;28;20058;-68
2023/07/18 11:40:08;;;;;;;4.65;1.80;;;24.50;94.90;;;;;;5001158;28;20096;-68
2023/07/18 11:42:48;;;;;;;2.92;1.83;;;24.60;94.00;;;;;;5001389;28;20054;-68
2023/07/18 11:45:19;;;;;;;6.65;2.90;;;24.60;94.20;;;;;;5000289;28;20026;-68
2023/07/18 11:47:46;;;;;;;;;;;24.80;93.60;;;;;;5001430;28;20057;-68
2023/07/18 11:50:13;;;;;;;2.78;1.48;;;25.10;93.60;;;;;;5000106;28;19906;-68
2023/07/18 11:52:41;;;;;;;5.90;1.70;;;25.50;92.50;;;;;;5000829;28;20031;-67
2023/07/18 11:55:07;;;;;;;5.93;1.98;;;25.60;91.90;;;;;;5001349;28;20026;-68
2023/07/18 11:57:32;;;;;;;4.05;2.10;;;25.70;91.50;;;;;;4999903;28;20029;-68
2023/07/18 11:59:58;;;;;;;3.58;1.58;;;25.70;92.20;;;;;;5001103;28;20029;-68
2023/07/18 12:02:24;;;;;;;2.08;1.75;;;25.70;93.40;;;;;;4999913;28;20019;-68
2023/07/18 12:04:49;;;;;;;4.53;2.55;;;25.50;94.10;;;;;;5000251;28;20026;-68
2023/07/18 12:07:15;;;;;;;4.00;2.10;;;25.40;92.40;;;;;;4999874;28;20048;-67
2023/07/18 12:09:41;;;;;;;8.07;1.90;;;25.60;91.40;;;;;;5001003;28;20049;-68
2023/07/18 12:12:07;;;;;;;3.33;2.00;;;26.10;90.70;;;;;;4999810;28;20050;-68
2023/07/18 12:14:33;;;;;;;5.85;1.90;;;26.30;89.20;;;;;;4999627;28;20125;-68
2023/07/18 12:16:58;;;;;;;3.60;2.13;;;26.60;88.60;;;;;;4999563;28;20113;-67
2023/07/18 12:19:24;;;;;;;3.83;1.80;;;26.70;87.20;;;;;;4999493;28;20106;-68
2023/07/18 12:21:50;;;;;;;3.42;2.20;;;26.80;87.60;;;;;;5000439;28;20057;-68
2023/07/18 12:24:15;;;;;;;5.72;1.90;;;26.90;87.80;;;;;;5000529;28;20023;-68
2023/07/18 12:26:41;;;;;;;7.07;2.28;;;26.90;87.40;;;;;;4999515;28;20022;-70
2023/07/18 12:29:07;;;;;;;2.92;1.85;;;27.20;85.00;;;;;;4999481;28;20046;-71
2023/07/18 12:31:34;;;;;;;3.65;1.70;;;27.30;84.60;;;;;;5000106;28;20030;-70
2023/07/18 12:34:00;;;;;;;5.60;1.83;;;27.40;82.50;;;;;;4999581;28;20023;-71
2023/07/18 12:36:25;;;;;;;4.30;2.00;;;27.40;84.30;;;;;;5000256;28;20046;-69
2023/07/18 12:38:51;;;;;;;5.93;1.95;;;27.40;83.90;;;;;;5000404;28;20026;-70
2023/07/18 12:41:17;;;;;;;3.88;1.95;;;27.30;83.50;;;;;;4999485;28;20019;-70
2023/07/18 12:43:43;;;;;;;2.72;2.03;;;27.30;83.10;;;;;;4998117;28;20062;-69
2023/07/18 12:46:08;;;;;;;3.15;1.73;;;27.50;80.90;;;;;;4999939;28;20031;-68